sensor_id;sensor_type;location;lat;lon;timestamp;pressure;altitude;pressure_sealevel;temperature;humidity
69247;BME280;56358;56.328;43.992;2023-02-12T00:00:37;99806.28;;;-3.10;66.64
69247;BME280;56358;56.328;43.992;2023-02-12T00:02:38;99735.13;;;-3.53;66.60
69247;BME280;56358;56.328;43.992;2023-02-12T00:04:39;99817.50;;;-3.05;66.46
69247;BME280;56358;56.328;43.992;2023-02-12T00:06:40;99803.66;;;-3.10;66.44
69247;BME280;56358;56.328;43.992;2023-02-12T00:08:40;99781.44;;;-3.25;66.71
69247;BME280;56358;56.328;43.992;2023-02-12T00:10:42;99813.44;;;-3.15;66.46
69247;BME280;56358;56.328;43.992;2023-02-12T00:12:42;99802.88;;;-3.12;66.68
69247;BME280;56358;56.328;43.992;2023-02-12T00:14:43;99800.31;;;-3.13;66.71
69247;BME280;56358;56.328;43.992;2023-02-12T00:16:44;99796.56;;;-3.06;66.63
69247;BME280;56358;56.328;43.992;2023-02-12T00:18:45;99795.84;;;-3.11;66.60
69247;BME280;56358;56.328;43.992;2023-02-12T00:20:46;99799.38;;;-3.12;66.55
69247;BME280;56358;56.328;43.992;2023-02-12T00:22:46;99794.06;;;-3.09;66.62
69247;BME280;56358;56.328;43.992;2023-02-12T00:24:47;99782.25;;;-3.23;66.22
69247;BME280;56358;56.328;43.992;2023-02-12T00:26:48;99789.09;;;-3.18;66.29
69247;BME280;56358;56.328;43.992;2023-02-12T00:28:50;99739.38;;;-3.48;66.48
69247;BME280;56358;56.328;43.992;2023-02-12T00:30:51;99769.28;;;-3.27;66.80
69247;BME280;56358;56.328;43.992;2023-02-12T00:32:52;99780.31;;;-3.17;66.81
69247;BME280;56358;56.328;43.992;2023-02-12T00:34:52;99758.69;;;-3.24;66.47
69247;BME280;56358;56.328;43.992;2023-02-12T00:36:53;99775.41;;;-3.27;66.24
69247;BME280;56358;56.328;43.992;2023-02-12T00:38:54;99755.56;;;-3.35;66.27
69247;BME280;56358;56.328;43.992;2023-02-12T00:40:55;99771.25;;;-3.34;66.68
69247;BME280;56358;56.328;43.992;2023-02-12T00:42:56;99766.09;;;-3.37;66.68
69247;BME280;56358;56.328;43.992;2023-02-12T00:44:56;99765.88;;;-3.31;66.95
69247;BME280;56358;56.328;43.992;2023-02-12T00:46:57;99768.50;;;-3.31;66.79
69247;BME280;56358;56.328;43.992;2023-02-12T00:48:57;99754.72;;;-3.36;66.52
69247;BME280;56358;56.328;43.992;2023-02-12T00:50:58;99755.50;;;-3.34;66.58
69247;BME280;56358;56.328;43.992;2023-02-12T00:52:59;99748.66;;;-3.38;66.24
69247;BME280;56358;56.328;43.992;2023-02-12T00:55:00;99758.13;;;-3.34;66.26
69247;BME280;56358;56.328;43.992;2023-02-12T00:57:00;99751.88;;;-3.30;66.15
69247;BME280;56358;56.328;43.992;2023-02-12T00:59:01;99740.00;;;-3.40;66.39
69247;BME280;56358;56.328;43.992;2023-02-12T01:01:02;99742.34;;;-3.32;66.46
69247;BME280;56358;56.328;43.992;2023-02-12T01:03:03;99746.69;;;-3.31;66.20
69247;BME280;56358;56.328;43.992;2023-02-12T01:05:04;99761.56;;;-3.32;66.48
69247;BME280;56358;56.328;43.992;2023-02-12T01:07:04;99730.31;;;-3.38;66.35
69247;BME280;56358;56.328;43.992;2023-02-12T01:09:05;99742.22;;;-3.28;66.45
69247;BME280;56358;56.328;43.992;2023-02-12T01:11:05;99725.13;;;-3.40;66.23
69247;BME280;56358;56.328;43.992;2023-02-12T01:13:06;99697.13;;;-3.66;65.84
69247;BME280;56358;56.328;43.992;2023-02-12T01:15:07;99747.50;;;-3.29;65.95
69247;BME280;56358;56.328;43.992;2023-02-12T01:17:09;99749.19;;;-3.28;65.95
69247;BME280;56358;56.328;43.992;2023-02-12T01:19:11;99754.44;;;-3.27;66.14
69247;BME280;56358;56.328;43.992;2023-02-12T01:21:20;99751.81;;;-3.27;66.15
69247;BME280;56358;56.328;43.992;2023-02-12T01:23:21;99728.50;;;-3.36;66.05
69247;BME280;56358;56.328;43.992;2023-02-12T01:25:22;99752.59;;;-3.25;65.72
69247;BME280;56358;56.328;43.992;2023-02-12T01:27:22;99729.09;;;-3.28;65.56
69247;BME280;56358;56.328;43.992;2023-02-12T01:29:23;99744.00;;;-3.30;65.89
69247;BME280;56358;56.328;43.992;2023-02-12T01:31:25;99750.28;;;-3.34;65.63
69247;BME280;56358;56.328;43.992;2023-02-12T01:33:26;99755.50;;;-3.34;65.85
69247;BME280;56358;56.328;43.992;2023-02-12T01:35:27;99736.63;;;-3.44;66.83
69247;BME280;56358;56.328;43.992;2023-02-12T01:37:28;99738.53;;;-3.49;67.09
69247;BME280;56358;56.328;43.992;2023-02-12T01:39:28;99713.50;;;-3.59;67.31
69247;BME280;56358;56.328;43.992;2023-02-12T01:41:32;99740.06;;;-3.43;67.33
69247;BME280;56358;56.328;43.992;2023-02-12T01:43:36;99730.78;;;-3.52;66.94
69247;BME280;56358;56.328;43.992;2023-02-12T01:47:44;99736.81;;;-3.50;67.22
69247;BME280;56358;56.328;43.992;2023-02-12T01:49:47;99720.19;;;-3.49;67.43
69247;BME280;56358;56.328;43.992;2023-02-12T01:51:51;99729.84;;;-3.51;67.97
69247;BME280;56358;56.328;43.992;2023-02-12T01:53:55;99732.44;;;-3.49;68.23
69247;BME280;56358;56.328;43.992;2023-02-12T01:56:00;99735.94;;;-3.50;68.41
69247;BME280;56358;56.328;43.992;2023-02-12T01:58:03;99733.44;;;-3.54;69.29
69247;BME280;56358;56.328;43.992;2023-02-12T02:00:09;99740.28;;;-3.49;69.26
69247;BME280;56358;56.328;43.992;2023-02-12T02:02:10;99737.09;;;-3.59;69.56
69247;BME280;56358;56.328;43.992;2023-02-12T02:04:18;99714.13;;;-3.79;69.43
69247;BME280;56358;56.328;43.992;2023-02-12T02:06:24;99747.63;;;-3.61;69.81
69247;BME280;56358;56.328;43.992;2023-02-12T02:08:27;99691.06;;;-3.95;69.48
69247;BME280;56358;56.328;43.992;2023-02-12T02:10:29;99724.31;;;-3.70;69.67
69247;BME280;56358;56.328;43.992;2023-02-12T02:12:30;99749.72;;;-3.72;70.03
69247;BME280;56358;56.328;43.992;2023-02-12T02:14:51;99712.84;;;-3.94;70.60
69247;BME280;56358;56.328;43.992;2023-02-12T02:21:45;99750.63;;;-3.73;71.88
69247;BME280;56358;56.328;43.992;2023-02-12T02:31:13;99738.72;;;-3.83;72.29
69247;BME280;56358;56.328;43.992;2023-02-12T02:35:45;99718.09;;;-3.94;72.25
69247;BME280;56358;56.328;43.992;2023-02-12T02:40:23;99723.31;;;-3.94;72.41
69247;BME280;56358;56.328;43.992;2023-02-12T02:42:49;99708.09;;;-4.10;72.49
69247;BME280;56358;56.328;43.992;2023-02-12T02:45:04;99733.03;;;-3.98;72.82
69247;BME280;56358;56.328;43.992;2023-02-12T02:47:09;99726.09;;;-3.99;72.82
69247;BME280;56358;56.328;43.992;2023-02-12T02:49:20;99726.09;;;-3.99;73.22
69247;BME280;56358;56.328;43.992;2023-02-12T02:51:29;99742.66;;;-3.98;73.57
69247;BME280;56358;56.328;43.992;2023-02-12T02:53:36;99728.66;;;-3.97;73.13
69247;BME280;56358;56.328;43.992;2023-02-12T02:55:59;99730.50;;;-4.01;73.26
69247;BME280;56358;56.328;43.992;2023-02-12T02:58:09;99660.97;;;-4.40;73.27
69247;BME280;56358;56.328;43.992;2023-02-12T03:00:20;99706.56;;;-4.17;73.31
69247;BME280;56358;56.328;43.992;2023-02-12T03:02:28;99730.97;;;-4.16;73.61
69247;BME280;56358;56.328;43.992;2023-02-12T03:04:43;99731.00;;;-4.18;73.78
69247;BME280;56358;56.328;43.992;2023-02-12T03:06:52;99727.69;;;-4.23;74.09
69247;BME280;56358;56.328;43.992;2023-02-12T03:09:02;99719.69;;;-4.18;74.23
69247;BME280;56358;56.328;43.992;2023-02-12T03:11:23;99726.59;;;-4.16;74.04
69247;BME280;56358;56.328;43.992;2023-02-12T03:13:33;99722.41;;;-4.22;74.27
69247;BME280;56358;56.328;43.992;2023-02-12T03:15:41;99733.78;;;-4.23;74.32
69247;BME280;56358;56.328;43.992;2023-02-12T03:17:46;99716.13;;;-4.16;74.58
69247;BME280;56358;56.328;43.992;2023-02-12T03:19:59;99695.47;;;-4.25;74.50
69247;BME280;56358;56.328;43.992;2023-02-12T03:22:07;99728.03;;;-4.06;74.54
69247;BME280;56358;56.328;43.992;2023-02-12T03:26:58;99734.97;;;-4.03;74.14
69247;BME280;56358;56.328;43.992;2023-02-12T03:29:02;99727.09;;;-4.03;73.83
69247;BME280;56358;56.328;43.992;2023-02-12T03:33:40;99709.94;;;-4.13;73.75
69247;BME280;56358;56.328;43.992;2023-02-12T03:35:54;99736.69;;;-4.04;73.77
69247;BME280;56358;56.328;43.992;2023-02-12T03:38:25;99726.16;;;-4.02;73.63
69247;BME280;56358;56.328;43.992;2023-02-12T03:40:41;99726.16;;;-4.02;73.64
69247;BME280;56358;56.328;43.992;2023-02-12T03:42:49;99729.78;;;-4.06;74.13
69247;BME280;56358;56.328;43.992;2023-02-12T03:45:07;99687.03;;;-4.35;74.34
69247;BME280;56358;56.328;43.992;2023-02-12T03:47:22;99721.13;;;-4.08;74.42
69247;BME280;56358;56.328;43.992;2023-02-12T03:49:33;99706.78;;;-4.25;74.36
69247;BME280;56358;56.328;43.992;2023-02-12T03:51:41;99714.59;;;-4.23;74.34
69247;BME280;56358;56.328;43.992;2023-02-12T03:53:43;99715.03;;;-4.09;74.91
69247;BME280;56358;56.328;43.992;2023-02-12T03:55:47;99723.66;;;-4.05;75.05
69247;BME280;56358;56.328;43.992;2023-02-12T03:57:54;99714.81;;;-4.01;74.56
69247;BME280;56358;56.328;43.992;2023-02-12T04:00:02;99726.44;;;-4.10;74.29
69247;BME280;56358;56.328;43.992;2023-02-12T04:02:04;99716.06;;;-4.14;73.95
69247;BME280;56358;56.328;43.992;2023-02-12T04:04:07;99719.69;;;-4.18;73.96
69247;BME280;56358;56.328;43.992;2023-02-12T04:06:19;99725.75;;;-4.16;74.25
69247;BME280;56358;56.328;43.992;2023-02-12T04:08:21;99700.00;;;-4.32;74.12
69247;BME280;56358;56.328;43.992;2023-02-12T04:10:31;99723.97;;;-4.16;75.01
69247;BME280;56358;56.328;43.992;2023-02-12T04:15:19;99726.53;;;-4.14;74.77
69247;BME280;56358;56.328;43.992;2023-02-12T04:22:17;99719.31;;;-4.06;74.67
69247;BME280;56358;56.328;43.992;2023-02-12T04:31:22;99729.03;;;-4.10;73.71
69247;BME280;56358;56.328;43.992;2023-02-12T04:33:50;99689.50;;;-4.30;73.73
69247;BME280;56358;56.328;43.992;2023-02-12T04:36:09;99725.66;;;-4.13;73.83
69247;BME280;56358;56.328;43.992;2023-02-12T04:38:18;99732.59;;;-4.12;73.90
69247;BME280;56358;56.328;43.992;2023-02-12T04:40:21;99740.25;;;-4.06;73.92
69247;BME280;56358;56.328;43.992;2023-02-12T04:42:22;99738.53;;;-4.06;73.51
69247;BME280;56358;56.328;43.992;2023-02-12T04:44:25;99736.75;;;-4.05;73.65
69247;BME280;56358;56.328;43.992;2023-02-12T04:46:26;99739.41;;;-4.07;74.16
69247;BME280;56358;56.328;43.992;2023-02-12T04:48:27;99739.69;;;-4.16;73.88
69247;BME280;56358;56.328;43.992;2023-02-12T04:50:37;99746.69;;;-4.16;75.02
69247;BME280;56358;56.328;43.992;2023-02-12T04:52:38;99730.09;;;-4.17;74.44
69247;BME280;56358;56.328;43.992;2023-02-12T04:54:39;99742.25;;;-4.14;74.96
69247;BME280;56358;56.328;43.992;2023-02-12T04:56:39;99738.69;;;-4.12;75.06
69247;BME280;56358;56.328;43.992;2023-02-12T04:58:41;99704.47;;;-4.35;74.90
69247;BME280;56358;56.328;43.992;2023-02-12T05:00:41;99733.41;;;-4.10;75.23
69247;BME280;56358;56.328;43.992;2023-02-12T05:02:42;99745.75;;;-4.14;74.65
69247;BME280;56358;56.328;43.992;2023-02-12T05:04:43;99730.22;;;-4.20;74.69
69247;BME280;56358;56.328;43.992;2023-02-12T05:06:44;99744.03;;;-4.15;74.51
69247;BME280;56358;56.328;43.992;2023-02-12T05:08:45;99761.41;;;-4.12;74.58
69247;BME280;56358;56.328;43.992;2023-02-12T05:10:45;99752.59;;;-4.10;74.76
69247;BME280;56358;56.328;43.992;2023-02-12T05:12:46;99756.03;;;-4.08;74.83
69247;BME280;56358;56.328;43.992;2023-02-12T05:14:47;99754.22;;;-4.06;74.94
69247;BME280;56358;56.328;43.992;2023-02-12T05:16:47;99750.00;;;-4.10;74.75
69247;BME280;56358;56.328;43.992;2023-02-12T05:18:48;99760.19;;;-4.00;74.89
69247;BME280;56358;56.328;43.992;2023-02-12T05:20:56;99762.75;;;-3.99;74.74
69247;BME280;56358;56.328;43.992;2023-02-12T05:22:57;99756.59;;;-3.98;74.20
69247;BME280;56358;56.328;43.992;2023-02-12T05:24:57;99756.13;;;-4.11;74.21
69247;BME280;56358;56.328;43.992;2023-02-12T05:26:58;99732.88;;;-4.22;74.82
69247;BME280;56358;56.328;43.992;2023-02-12T05:28:59;99760.88;;;-3.95;74.78
69247;BME280;56358;56.328;43.992;2023-02-12T05:31:01;99758.94;;;-3.89;74.75
69247;BME280;56358;56.328;43.992;2023-02-12T05:33:02;99777.06;;;-3.81;74.33
69247;BME280;56358;56.328;43.992;2023-02-12T05:35:03;99765.84;;;-3.86;74.03
69247;BME280;56358;56.328;43.992;2023-02-12T05:37:04;99771.81;;;-3.81;74.09
69247;BME280;56358;56.328;43.992;2023-02-12T05:39:05;99776.22;;;-3.81;73.96
69247;BME280;56358;56.328;43.992;2023-02-12T05:41:10;99773.47;;;-3.78;73.57
69247;BME280;56358;56.328;43.992;2023-02-12T05:43:11;99757.88;;;-3.81;73.64
69247;BME280;56358;56.328;43.992;2023-02-12T05:45:12;99765.28;;;-3.67;73.17
69247;BME280;56358;56.328;43.992;2023-02-12T05:47:12;99760.34;;;-3.77;73.15
69247;BME280;56358;56.328;43.992;2023-02-12T05:49:13;99733.91;;;-3.97;73.08
69247;BME280;56358;56.328;43.992;2023-02-12T05:51:19;99770.53;;;-3.67;73.17
69247;BME280;56358;56.328;43.992;2023-02-12T05:53:21;99776.66;;;-3.67;72.84
69247;BME280;56358;56.328;43.992;2023-02-12T05:55:21;99774.03;;;-3.67;72.69
69247;BME280;56358;56.328;43.992;2023-02-12T05:57:22;99773.25;;;-3.71;72.53
69247;BME280;56358;56.328;43.992;2023-02-12T05:59:23;99779.28;;;-3.68;71.80
69247;BME280;56358;56.328;43.992;2023-02-12T06:01:41;99780.91;;;-3.64;72.74
69247;BME280;56358;56.328;43.992;2023-02-12T06:03:42;99787.13;;;-3.67;72.88
69247;BME280;56358;56.328;43.992;2023-02-12T06:05:49;99796.72;;;-3.67;72.78
69247;BME280;56358;56.328;43.992;2023-02-12T06:07:50;99782.69;;;-3.65;72.55
69247;BME280;56358;56.328;43.992;2023-02-12T06:09:50;99793.28;;;-3.68;72.64
69247;BME280;56358;56.328;43.992;2023-02-12T06:11:51;99742.53;;;-3.94;73.23
69247;BME280;56358;56.328;43.992;2023-02-12T06:13:52;99788.75;;;-3.63;73.18
69247;BME280;56358;56.328;43.992;2023-02-12T06:15:52;99784.31;;;-3.61;73.24
69247;BME280;56358;56.328;43.992;2023-02-12T06:17:53;99812.13;;;-3.57;73.14
69247;BME280;56358;56.328;43.992;2023-02-12T06:19:54;99799.91;;;-3.56;72.99
69247;BME280;56358;56.328;43.992;2023-02-12T06:21:54;99724.19;;;-3.94;72.92
69247;BME280;56358;56.328;43.992;2023-02-12T06:23:55;99794.22;;;-3.42;72.82
69247;BME280;56358;56.328;43.992;2023-02-12T06:25:56;99749.41;;;-3.61;73.06
69247;BME280;56358;56.328;43.992;2023-02-12T06:27:57;99795.78;;;-3.37;72.74
69247;BME280;56358;56.328;43.992;2023-02-12T06:29:57;99801.91;;;-3.36;72.12
69247;BME280;56358;56.328;43.992;2023-02-12T06:31:58;99800.22;;;-3.39;72.04
69247;BME280;56358;56.328;43.992;2023-02-12T06:34:07;99801.78;;;-3.33;72.04
69247;BME280;56358;56.328;43.992;2023-02-12T06:36:09;99788.75;;;-3.34;71.36
69247;BME280;56358;56.328;43.992;2023-02-12T06:38:09;99809.88;;;-3.41;71.33
69247;BME280;56358;56.328;43.992;2023-02-12T06:40:10;99800.13;;;-3.35;71.82
69247;BME280;56358;56.328;43.992;2023-02-12T06:42:11;99765.72;;;-3.53;71.59
69247;BME280;56358;56.328;43.992;2023-02-12T06:44:12;99800.63;;;-3.24;71.17
69247;BME280;56358;56.328;43.992;2023-02-12T06:46:13;99760.44;;;-3.51;70.87
69247;BME280;56358;56.328;43.992;2023-02-12T06:48:13;99809.31;;;-3.22;71.00
69247;BME280;56358;56.328;43.992;2023-02-12T06:50:14;99803.06;;;-3.18;70.75
69247;BME280;56358;56.328;43.992;2023-02-12T06:52:15;99783.56;;;-3.38;70.33
69247;BME280;56358;56.328;43.992;2023-02-12T06:54:16;99810.03;;;-3.17;70.07
69247;BME280;56358;56.328;43.992;2023-02-12T06:56:18;99788.28;;;-3.21;69.93
69247;BME280;56358;56.328;43.992;2023-02-12T06:58:19;99811.34;;;-3.04;69.98
69247;BME280;56358;56.328;43.992;2023-02-12T07:00:20;99813.44;;;-3.15;69.26
69247;BME280;56358;56.328;43.992;2023-02-12T07:02:21;99811.84;;;-3.19;69.40
69247;BME280;56358;56.328;43.992;2023-02-12T07:04:21;99815.88;;;-3.09;69.81
69247;BME280;56358;56.328;43.992;2023-02-12T07:06:23;99814.69;;;-2.98;69.70
69247;BME280;56358;56.328;43.992;2023-02-12T07:08:24;99817.13;;;-2.94;69.21
69247;BME280;56358;56.328;43.992;2023-02-12T07:10:24;99809.91;;;-2.87;69.61
69247;BME280;56358;56.328;43.992;2023-02-12T07:12:25;99826.44;;;-2.83;69.22
69247;BME280;56358;56.328;43.992;2023-02-12T07:14:26;99824.47;;;-2.77;69.19
69247;BME280;56358;56.328;43.992;2023-02-12T07:16:27;99833.81;;;-2.70;69.09
69247;BME280;56358;56.328;43.992;2023-02-12T07:18:28;99804.53;;;-2.82;68.52
69247;BME280;56358;56.328;43.992;2023-02-12T07:20:29;99829.34;;;-2.66;68.99
69247;BME280;56358;56.328;43.992;2023-02-12T07:22:29;99824.91;;;-2.64;68.46
69247;BME280;56358;56.328;43.992;2023-02-12T07:24:30;99815.31;;;-2.65;68.03
69247;BME280;56358;56.328;43.992;2023-02-12T07:26:31;99836.00;;;-2.56;68.28
69247;BME280;56358;56.328;43.992;2023-02-12T07:28:32;99747.22;;;-2.95;67.84
69247;BME280;56358;56.328;43.992;2023-02-12T07:30:33;99814.63;;;-2.70;68.22
69247;BME280;56358;56.328;43.992;2023-02-12T07:32:34;99815.84;;;-2.55;68.00
69247;BME280;56358;56.328;43.992;2023-02-12T07:34:34;99826.09;;;-2.47;67.67
69247;BME280;56358;56.328;43.992;2023-02-12T07:36:35;99825.34;;;-2.51;67.46
69247;BME280;56358;56.328;43.992;2023-02-12T07:38:36;99814.06;;;-2.55;67.77
69247;BME280;56358;56.328;43.992;2023-02-12T07:40:40;99814.34;;;-2.62;67.80
69247;BME280;56358;56.328;43.992;2023-02-12T07:42:41;99836.34;;;-2.41;67.71
69247;BME280;56358;56.328;43.992;2023-02-12T07:44:41;99815.72;;;-2.50;67.28
69247;BME280;56358;56.328;43.992;2023-02-12T07:46:47;99764.91;;;-2.75;66.77
69247;BME280;56358;56.328;43.992;2023-02-12T07:48:50;99824.47;;;-2.51;67.06
69247;BME280;56358;56.328;43.992;2023-02-12T07:50:50;99842.38;;;-2.38;67.46
69247;BME280;56358;56.328;43.992;2023-02-12T07:52:51;99845.91;;;-2.39;67.13
69247;BME280;56358;56.328;43.992;2023-02-12T07:54:51;99853.94;;;-2.43;66.79
69247;BME280;56358;56.328;43.992;2023-02-12T07:56:52;99817.78;;;-2.60;66.78
69247;BME280;56358;56.328;43.992;2023-02-12T07:58:53;99864.38;;;-2.42;67.22
69247;BME280;56358;56.328;43.992;2023-02-12T08:00:53;99859.50;;;-2.53;67.26
69247;BME280;56358;56.328;43.992;2023-02-12T08:02:54;99878.16;;;-2.35;67.08
69247;BME280;56358;56.328;43.992;2023-02-12T08:04:55;99869.97;;;-2.26;67.01
69247;BME280;56358;56.328;43.992;2023-02-12T08:06:56;99856.09;;;-2.29;66.88
69247;BME280;56358;56.328;43.992;2023-02-12T08:09:00;99869.97;;;-2.26;66.62
69247;BME280;56358;56.328;43.992;2023-02-12T08:11:00;99863.22;;;-2.33;66.99
69247;BME280;56358;56.328;43.992;2023-02-12T08:13:01;99870.63;;;-2.19;66.88
69247;BME280;56358;56.328;43.992;2023-02-12T08:15:02;99866.31;;;-2.22;66.66
69247;BME280;56358;56.328;43.992;2023-02-12T08:17:04;99825.09;;;-2.70;67.09
69247;BME280;56358;56.328;43.992;2023-02-12T08:19:05;99873.72;;;-2.33;66.76
69247;BME280;56358;56.328;43.992;2023-02-12T08:21:17;99879.56;;;-2.25;67.13
69247;BME280;56358;56.328;43.992;2023-02-12T08:23:18;99865.25;;;-2.41;67.22
69247;BME280;56358;56.328;43.992;2023-02-12T08:25:19;99850.22;;;-2.63;67.59
69247;BME280;56358;56.328;43.992;2023-02-12T08:27:19;99892.44;;;-2.42;67.31
69247;BME280;56358;56.328;43.992;2023-02-12T08:29:23;99815.75;;;-2.79;67.33
69247;BME280;56358;56.328;43.992;2023-02-12T08:31:29;99895.53;;;-2.31;67.61
69247;BME280;56358;56.328;43.992;2023-02-12T08:33:30;99886.63;;;-2.27;67.17
69247;BME280;56358;56.328;43.992;2023-02-12T08:35:31;99893.78;;;-2.30;66.96
69247;BME280;56358;56.328;43.992;2023-02-12T08:37:31;99900.47;;;-2.22;67.14
69247;BME280;56358;56.328;43.992;2023-02-12T08:39:32;99898.22;;;-2.07;66.90
69247;BME280;56358;56.328;43.992;2023-02-12T08:41:34;99889.91;;;-1.95;66.68
69247;BME280;56358;56.328;43.992;2023-02-12T08:43:35;99898.59;;;-1.93;66.33
69247;BME280;56358;56.328;43.992;2023-02-12T08:45:36;99896.31;;;-1.78;65.57
69247;BME280;56358;56.328;43.992;2023-02-12T08:47:37;99902.81;;;-1.63;65.11
69247;BME280;56358;56.328;43.992;2023-02-12T08:49:37;99904.44;;;-1.61;64.85
69247;BME280;56358;56.328;43.992;2023-02-12T08:51:40;99907.88;;;-1.59;65.13
69247;BME280;56358;56.328;43.992;2023-02-12T08:53:43;99910.03;;;-1.46;64.34
69247;BME280;56358;56.328;43.992;2023-02-12T08:55:50;99867.00;;;-1.67;63.81
69247;BME280;56358;56.328;43.992;2023-02-12T08:57:50;99843.00;;;-2.06;64.26
69247;BME280;56358;56.328;43.992;2023-02-12T08:59:53;99912.72;;;-1.72;63.99
69247;BME280;56358;56.328;43.992;2023-02-12T09:01:54;99905.13;;;-1.79;64.23
69247;BME280;56358;56.328;43.992;2023-02-12T09:03:55;99906.25;;;-1.87;64.33
69247;BME280;56358;56.328;43.992;2023-02-12T09:05:55;99915.47;;;-1.75;64.72
69247;BME280;56358;56.328;43.992;2023-02-12T09:07:56;99915.97;;;-1.89;64.66
69247;BME280;56358;56.328;43.992;2023-02-12T09:09:57;99918.16;;;-2.02;65.17
69247;BME280;56358;56.328;43.992;2023-02-12T09:11:57;99912.75;;;-1.97;65.05
69247;BME280;56358;56.328;43.992;2023-02-12T09:14:03;99881.69;;;-2.11;65.25
69247;BME280;56358;56.328;43.992;2023-02-12T09:16:04;99917.31;;;-1.78;65.06
69247;BME280;56358;56.328;43.992;2023-02-12T09:18:06;99903.66;;;-1.88;64.94
69247;BME280;56358;56.328;43.992;2023-02-12T09:20:07;99879.56;;;-1.99;64.77
69247;BME280;56358;56.328;43.992;2023-02-12T09:22:07;99928.13;;;-1.86;65.14
69247;BME280;56358;56.328;43.992;2023-02-12T09:24:09;99932.84;;;-1.96;65.58
69247;BME280;56358;56.328;43.992;2023-02-12T09:26:13;99880.75;;;-2.08;65.47
69247;BME280;56358;56.328;43.992;2023-02-12T09:28:14;99928.09;;;-1.84;65.57
69247;BME280;56358;56.328;43.992;2023-02-12T09:30:15;99934.56;;;-1.95;65.66
69247;BME280;56358;56.328;43.992;2023-02-12T09:32:16;99934.56;;;-1.95;65.85
69247;BME280;56358;56.328;43.992;2023-02-12T09:34:16;99882.72;;;-2.15;65.69
69247;BME280;56358;56.328;43.992;2023-02-12T09:36:17;99945.66;;;-1.87;65.27
69247;BME280;56358;56.328;43.992;2023-02-12T09:38:18;99948.22;;;-1.85;64.88
69247;BME280;56358;56.328;43.992;2023-02-12T09:40:47;99953.44;;;-1.83;65.50
69247;BME280;56358;56.328;43.992;2023-02-12T09:45:06;99952.81;;;-1.90;65.31
69247;BME280;56358;56.328;43.992;2023-02-12T09:47:30;99948.50;;;-1.93;65.71
69247;BME280;56358;56.328;43.992;2023-02-12T09:51:40;99955.56;;;-1.70;65.76
69247;BME280;56358;56.328;43.992;2023-02-12T09:53:44;99820.91;;;-2.49;65.39
69247;BME280;56358;56.328;43.992;2023-02-12T09:55:46;99956.91;;;-1.58;65.11
69247;BME280;56358;56.328;43.992;2023-02-12T09:57:47;99955.13;;;-1.57;64.36
69247;BME280;56358;56.328;43.992;2023-02-12T09:59:53;99958.50;;;-1.54;64.75
69247;BME280;56358;56.328;43.992;2023-02-12T10:01:57;99945.31;;;-1.52;64.85
69247;BME280;56358;56.328;43.992;2023-02-12T10:03:58;99957.88;;;-1.60;64.55
69247;BME280;56358;56.328;43.992;2023-02-12T10:06:03;99961.47;;;-1.63;64.36
69247;BME280;56358;56.328;43.992;2023-02-12T10:14:43;99967.31;;;-1.80;65.31
69247;BME280;56358;56.328;43.992;2023-02-12T10:23:41;99969.16;;;-1.57;65.02
69247;BME280;56358;56.328;43.992;2023-02-12T10:25:56;99966.84;;;-1.42;64.51
69247;BME280;56358;56.328;43.992;2023-02-12T10:28:00;99972.94;;;-1.40;65.15
69247;BME280;56358;56.328;43.992;2023-02-12T10:30:12;99977.38;;;-1.42;64.96
69247;BME280;56358;56.328;43.992;2023-02-12T10:32:27;99937.88;;;-1.64;64.21
69247;BME280;56358;56.328;43.992;2023-02-12T10:34:33;99982.63;;;-1.42;64.56
69247;BME280;56358;56.328;43.992;2023-02-12T10:38:44;99969.16;;;-1.57;65.02
69247;BME280;56358;56.328;43.992;2023-02-12T10:40:46;99984.16;;;-1.60;65.00
69247;BME280;56358;56.328;43.992;2023-02-12T10:42:51;99986.28;;;-1.70;65.19
69247;BME280;56358;56.328;43.992;2023-02-12T10:44:52;99989.81;;;-1.71;64.87
69247;BME280;56358;56.328;43.992;2023-02-12T10:46:53;99992.56;;;-1.76;64.94
69247;BME280;56358;56.328;43.992;2023-02-12T10:48:55;99996.03;;;-1.74;65.72
69247;BME280;56358;56.328;43.992;2023-02-12T10:53:16;100000.09;;;-1.65;66.76
69247;BME280;56358;56.328;43.992;2023-02-12T10:57:31;100013.53;;;-1.73;65.96
69247;BME280;56358;56.328;43.992;2023-02-12T10:59:32;100005.47;;;-1.68;66.45
69247;BME280;56358;56.328;43.992;2023-02-12T11:01:36;100004.38;;;-1.62;66.81
69247;BME280;56358;56.328;43.992;2023-02-12T11:03:37;100015.78;;;-1.62;67.04
69247;BME280;56358;56.328;43.992;2023-02-12T11:05:41;100010.72;;;-1.68;67.14
69247;BME280;56358;56.328;43.992;2023-02-12T11:07:48;100011.41;;;-1.63;66.46
69247;BME280;56358;56.328;43.992;2023-02-12T11:09:51;100024.34;;;-1.57;67.24
69247;BME280;56358;56.328;43.992;2023-02-12T11:11:52;100015.19;;;-1.70;67.09
69247;BME280;56358;56.328;43.992;2023-02-12T11:14:02;99987.09;;;-1.95;66.76
69247;BME280;56358;56.328;43.992;2023-02-12T11:16:04;100022.72;;;-1.86;66.99
69247;BME280;56358;56.328;43.992;2023-02-12T11:18:07;100032.97;;;-1.78;67.46
69247;BME280;56358;56.328;43.992;2023-02-12T11:22:17;100045.25;;;-1.79;67.59
69247;BME280;56358;56.328;43.992;2023-02-12T11:26:28;99996.31;;;-2.08;67.26
69247;BME280;56358;56.328;43.992;2023-02-12T11:28:31;100032.69;;;-1.96;67.01
69247;BME280;56358;56.328;43.992;2023-02-12T11:30:32;100059.16;;;-1.75;67.24
69247;BME280;56358;56.328;43.992;2023-02-12T11:32:32;100054.81;;;-1.76;67.67
69247;BME280;56358;56.328;43.992;2023-02-12T11:34:34;100036.06;;;-1.92;67.88
69247;BME280;56358;56.328;43.992;2023-02-12T11:36:42;100067.03;;;-1.75;67.80
69247;BME280;56358;56.328;43.992;2023-02-12T11:38:51;100073.03;;;-1.72;67.56
69247;BME280;56358;56.328;43.992;2023-02-12T11:40:57;100072.25;;;-1.74;67.43
69247;BME280;56358;56.328;43.992;2023-02-12T11:43:02;100084.44;;;-1.71;67.55
69247;BME280;56358;56.328;43.992;2023-02-12T11:45:05;100073.50;;;-1.86;67.18
69247;BME280;56358;56.328;43.992;2023-02-12T11:47:16;100088.38;;;-1.84;67.10
69247;BME280;56358;56.328;43.992;2023-02-12T11:49:21;100085.03;;;-1.90;67.36
69247;BME280;56358;56.328;43.992;2023-02-12T11:51:26;100084.19;;;-1.90;67.73
69247;BME280;56358;56.328;43.992;2023-02-12T11:53:33;100093.16;;;-1.97;67.83